sensor_id;sensor_type;location;lat;lon;timestamp;temperature;humidity
13231;DHT22;6681;53.254;10.398;2023-09-19T00:02:02;17.00;19.80
13231;DHT22;6681;53.254;10.398;2023-09-19T00:04:32;16.90;20.80
13231;DHT22;6681;53.254;10.398;2023-09-19T00:06:58;16.90;20.40
13231;DHT22;6681;53.254;10.398;2023-09-19T00:09:24;16.90;20.60
13231;DHT22;6681;53.254;10.398;2023-09-19T00:11:53;16.90;19.80
13231;DHT22;6681;53.254;10.398;2023-09-19T00:14:18;16.90;21.80
13231;DHT22;6681;53.254;10.398;2023-09-19T00:16:44;16.80;21.90
13231;DHT22;6681;53.254;10.398;2023-09-19T00:19:12;16.80;22.00
13231;DHT22;6681;53.254;10.398;2023-09-19T00:21:39;16.80;23.40
13231;DHT22;6681;53.254;10.398;2023-09-19T00:24:06;16.80;24.70
13231;DHT22;6681;53.254;10.398;2023-09-19T00:26:32;16.80;24.60
13231;DHT22;6681;53.254;10.398;2023-09-19T00:29:00;16.70;24.30
13231;DHT22;6681;53.254;10.398;2023-09-19T00:31:31;16.70;23.60
13231;DHT22;6681;53.254;10.398;2023-09-19T00:33:57;16.70;24.90
13231;DHT22;6681;53.254;10.398;2023-09-19T00:36:27;16.70;25.20
13231;DHT22;6681;53.254;10.398;2023-09-19T00:38:54;16.70;26.30
13231;DHT22;6681;53.254;10.398;2023-09-19T00:41:20;16.70;26.80
13231;DHT22;6681;53.254;10.398;2023-09-19T00:43:46;16.70;28.50
13231;DHT22;6681;53.254;10.398;2023-09-19T00:46:16;16.60;28.50
13231;DHT22;6681;53.254;10.398;2023-09-19T00:48:42;16.70;29.30
13231;DHT22;6681;53.254;10.398;2023-09-19T00:51:09;16.60;29.80
13231;DHT22;6681;53.254;10.398;2023-09-19T00:53:34;16.60;29.80
13231;DHT22;6681;53.254;10.398;2023-09-19T00:56:02;16.60;29.00
13231;DHT22;6681;53.254;10.398;2023-09-19T00:58:29;16.60;29.10
13231;DHT22;6681;53.254;10.398;2023-09-19T01:00:59;16.60;30.50
13231;DHT22;6681;53.254;10.398;2023-09-19T01:03:25;16.60;30.90
13231;DHT22;6681;53.254;10.398;2023-09-19T01:05:50;16.60;31.00
13231;DHT22;6681;53.254;10.398;2023-09-19T01:08:16;16.60;31.50
13231;DHT22;6681;53.254;10.398;2023-09-19T01:11:00;16.60;31.10
13231;DHT22;6681;53.254;10.398;2023-09-19T01:13:45;16.60;31.70
13231;DHT22;6681;53.254;10.398;2023-09-19T01:21:57;16.70;28.10
13231;DHT22;6681;53.254;10.398;2023-09-19T01:30:35;16.80;27.00
13231;DHT22;6681;53.254;10.398;2023-09-19T01:33:06;16.80;24.80
13231;DHT22;6681;53.254;10.398;2023-09-19T01:35:32;16.80;24.80
13231;DHT22;6681;53.254;10.398;2023-09-19T01:37:59;16.80;23.90
13231;DHT22;6681;53.254;10.398;2023-09-19T01:40:25;16.80;24.10
13231;DHT22;6681;53.254;10.398;2023-09-19T01:51:00;16.80;21.00
13231;DHT22;6681;53.254;10.398;2023-09-19T01:53:33;16.80;22.20
13231;DHT22;6681;53.254;10.398;2023-09-19T01:56:01;16.80;23.00
13231;DHT22;6681;53.254;10.398;2023-09-19T01:58:35;16.80;19.60
13231;DHT22;6681;53.254;10.398;2023-09-19T02:01:04;16.80;19.20
13231;DHT22;6681;53.254;10.398;2023-09-19T02:03:35;16.80;21.40
13231;DHT22;6681;53.254;10.398;2023-09-19T02:06:01;16.80;19.90
13231;DHT22;6681;53.254;10.398;2023-09-19T02:08:29;16.80;17.90
13231;DHT22;6681;53.254;10.398;2023-09-19T02:10:56;16.80;18.00
13231;DHT22;6681;53.254;10.398;2023-09-19T02:13:23;16.80;15.30
13231;DHT22;6681;53.254;10.398;2023-09-19T02:15:53;16.70;16.90
13231;DHT22;6681;53.254;10.398;2023-09-19T02:18:19;16.70;14.80
13231;DHT22;6681;53.254;10.398;2023-09-19T02:20:44;16.60;14.70
13231;DHT22;6681;53.254;10.398;2023-09-19T02:23:12;16.70;16.90
13231;DHT22;6681;53.254;10.398;2023-09-19T02:25:38;16.70;14.80
13231;DHT22;6681;53.254;10.398;2023-09-19T02:28:05;16.60;16.70
13231;DHT22;6681;53.254;10.398;2023-09-19T02:30:32;16.60;15.00
13231;DHT22;6681;53.254;10.398;2023-09-19T02:32:58;16.50;17.10
13231;DHT22;6681;53.254;10.398;2023-09-19T02:35:27;16.50;17.80
13231;DHT22;6681;53.254;10.398;2023-09-19T02:37:53;16.50;16.50
13231;DHT22;6681;53.254;10.398;2023-09-19T02:40:19;16.60;15.70
13231;DHT22;6681;53.254;10.398;2023-09-19T02:42:48;16.60;15.60
13231;DHT22;6681;53.254;10.398;2023-09-19T02:45:18;16.60;15.00
13231;DHT22;6681;53.254;10.398;2023-09-19T02:47:45;16.60;14.80
13231;DHT22;6681;53.254;10.398;2023-09-19T02:50:11;16.50;13.60
13231;DHT22;6681;53.254;10.398;2023-09-19T02:52:37;16.50;12.40
13231;DHT22;6681;53.254;10.398;2023-09-19T02:55:03;16.50;13.10
13231;DHT22;6681;53.254;10.398;2023-09-19T02:57:31;16.60;13.70
13231;DHT22;6681;53.254;10.398;2023-09-19T02:59:59;16.60;11.80
13231;DHT22;6681;53.254;10.398;2023-09-19T03:02:26;16.50;11.80
13231;DHT22;6681;53.254;10.398;2023-09-19T03:04:53;16.60;14.40
13231;DHT22;6681;53.254;10.398;2023-09-19T03:07:19;16.60;12.30
13231;DHT22;6681;53.254;10.398;2023-09-19T03:09:45;16.60;12.60
13231;DHT22;6681;53.254;10.398;2023-09-19T03:12:11;16.50;11.50
13231;DHT22;6681;53.254;10.398;2023-09-19T03:14:37;16.50;9.50
13231;DHT22;6681;53.254;10.398;2023-09-19T03:17:02;16.50;7.60
13231;DHT22;6681;53.254;10.398;2023-09-19T03:19:31;16.50;6.40
13231;DHT22;6681;53.254;10.398;2023-09-19T03:21:59;16.50;7.10
13231;DHT22;6681;53.254;10.398;2023-09-19T03:24:25;16.50;6.00
13231;DHT22;6681;53.254;10.398;2023-09-19T03:26:51;16.50;4.80
13231;DHT22;6681;53.254;10.398;2023-09-19T03:29:17;16.50;2.60
13231;DHT22;6681;53.254;10.398;2023-09-19T03:31:43;16.40;1.00
13231;DHT22;6681;53.254;10.398;2023-09-19T03:34:09;16.40;1.00
13231;DHT22;6681;53.254;10.398;2023-09-19T03:36:35;16.30;1.00
13231;DHT22;6681;53.254;10.398;2023-09-19T03:39:02;16.30;1.00
13231;DHT22;6681;53.254;10.398;2023-09-19T03:41:31;16.30;1.00
13231;DHT22;6681;53.254;10.398;2023-09-19T03:43:57;16.30;1.00
13231;DHT22;6681;53.254;10.398;2023-09-19T03:46:22;16.30;1.00
13231;DHT22;6681;53.254;10.398;2023-09-19T03:48:48;16.20;1.00
13231;DHT22;6681;53.254;10.398;2023-09-19T03:51:13;16.20;1.00
13231;DHT22;6681;53.254;10.398;2023-09-19T03:53:39;16.20;1.00
13231;DHT22;6681;53.254;10.398;2023-09-19T03:56:05;16.10;1.00
13231;DHT22;6681;53.254;10.398;2023-09-19T03:58:30;16.10;1.00
13231;DHT22;6681;53.254;10.398;2023-09-19T04:00:57;16.10;1.00
13231;DHT22;6681;53.254;10.398;2023-09-19T04:03:23;16.00;1.00
13231;DHT22;6681;53.254;10.398;2023-09-19T04:05:51;16.00;1.00
13231;DHT22;6681;53.254;10.398;2023-09-19T04:08:16;16.00;1.00
13231;DHT22;6681;53.254;10.398;2023-09-19T04:10:43;16.00;1.00
13231;DHT22;6681;53.254;10.398;2023-09-19T04:13:09;16.00;1.00
13231;DHT22;6681;53.254;10.398;2023-09-19T04:15:35;18.80;1.00
13231;DHT22;6681;53.254;10.398;2023-09-19T04:18:00;16.00;1.00
13231;DHT22;6681;53.254;10.398;2023-09-19T04:20:26;16.00;1.00
13231;DHT22;6681;53.254;10.398;2023-09-19T04:22:51;16.00;1.00
13231;DHT22;6681;53.254;10.398;2023-09-19T04:25:17;16.00;1.00
13231;DHT22;6681;53.254;10.398;2023-09-19T04:27:44;15.90;1.00
13231;DHT22;6681;53.254;10.398;2023-09-19T04:30:10;15.90;1.00
13231;DHT22;6681;53.254;10.398;2023-09-19T04:32:40;15.90;1.00
13231;DHT22;6681;53.254;10.398;2023-09-19T04:35:09;15.90;1.00
13231;DHT22;6681;53.254;10.398;2023-09-19T04:37:39;15.80;1.00
13231;DHT22;6681;53.254;10.398;2023-09-19T04:40:09;15.80;1.00
13231;DHT22;6681;53.254;10.398;2023-09-19T04:42:43;15.70;1.00
13231;DHT22;6681;53.254;10.398;2023-09-19T04:45:10;15.70;1.00
13231;DHT22;6681;53.254;10.398;2023-09-19T04:47:36;15.70;1.00
13231;DHT22;6681;53.254;10.398;2023-09-19T04:50:05;15.70;1.00
13231;DHT22;6681;53.254;10.398;2023-09-19T04:52:31;15.70;1.00
13231;DHT22;6681;53.254;10.398;2023-09-19T04:54:57;15.70;1.00
13231;DHT22;6681;53.254;10.398;2023-09-19T04:57:23;15.70;1.00
13231;DHT22;6681;53.254;10.398;2023-09-19T04:59:49;15.70;1.00
13231;DHT22;6681;53.254;10.398;2023-09-19T05:02:15;15.60;1.00
13231;DHT22;6681;53.254;10.398;2023-09-19T05:04:41;15.50;1.00
13231;DHT22;6681;53.254;10.398;2023-09-19T05:07:06;15.50;1.00
13231;DHT22;6681;53.254;10.398;2023-09-19T05:09:32;15.50;1.00
13231;DHT22;6681;53.254;10.398;2023-09-19T05:12:00;15.50;1.00
13231;DHT22;6681;53.254;10.398;2023-09-19T05:14:25;15.50;1.00
13231;DHT22;6681;53.254;10.398;2023-09-19T05:16:51;15.40;1.00
13231;DHT22;6681;53.254;10.398;2023-09-19T05:19:17;15.40;1.00
13231;DHT22;6681;53.254;10.398;2023-09-19T05:21:42;15.50;1.00
13231;DHT22;6681;53.254;10.398;2023-09-19T05:24:08;15.40;1.00
13231;DHT22;6681;53.254;10.398;2023-09-19T05:26:33;15.40;1.00
13231;DHT22;6681;53.254;10.398;2023-09-19T05:28:59;15.40;1.00
13231;DHT22;6681;53.254;10.398;2023-09-19T05:31:26;15.40;1.00
13231;DHT22;6681;53.254;10.398;2023-09-19T05:33:53;15.40;1.00
13231;DHT22;6681;53.254;10.398;2023-09-19T05:36:20;15.30;1.00
13231;DHT22;6681;53.254;10.398;2023-09-19T05:38:46;15.40;1.00
13231;DHT22;6681;53.254;10.398;2023-09-19T05:41:15;15.30;1.00
13231;DHT22;6681;53.254;10.398;2023-09-19T05:43:41;15.30;1.00
13231;DHT22;6681;53.254;10.398;2023-09-19T05:46:07;15.20;1.00
13231;DHT22;6681;53.254;10.398;2023-09-19T05:48:33;15.20;1.00
13231;DHT22;6681;53.254;10.398;2023-09-19T05:50:59;15.20;1.00
13231;DHT22;6681;53.254;10.398;2023-09-19T05:53:27;15.20;1.00
13231;DHT22;6681;53.254;10.398;2023-09-19T05:55:52;15.20;1.00
13231;DHT22;6681;53.254;10.398;2023-09-19T05:58:18;15.20;1.00
13231;DHT22;6681;53.254;10.398;2023-09-19T06:00:45;15.20;1.00
13231;DHT22;6681;53.254;10.398;2023-09-19T06:03:12;15.20;1.00
13231;DHT22;6681;53.254;10.398;2023-09-19T06:05:40;15.20;1.00
13231;DHT22;6681;53.254;10.398;2023-09-19T06:08:06;15.20;1.00
13231;DHT22;6681;53.254;10.398;2023-09-19T06:10:33;15.20;1.00
13231;DHT22;6681;53.254;10.398;2023-09-19T06:13:00;15.20;1.00
13231;DHT22;6681;53.254;10.398;2023-09-19T06:15:26;15.20;1.00
13231;DHT22;6681;53.254;10.398;2023-09-19T06:17:53;15.20;1.00
13231;DHT22;6681;53.254;10.398;2023-09-19T06:20:23;15.20;1.00
13231;DHT22;6681;53.254;10.398;2023-09-19T06:22:50;15.20;1.00
13231;DHT22;6681;53.254;10.398;2023-09-19T06:25:16;15.30;1.00
13231;DHT22;6681;53.254;10.398;2023-09-19T06:27:52;15.30;1.00
13231;DHT22;6681;53.254;10.398;2023-09-19T06:30:19;15.30;1.00
13231;DHT22;6681;53.254;10.398;2023-09-19T06:32:45;15.30;1.00
13231;DHT22;6681;53.254;10.398;2023-09-19T06:35:12;15.40;1.00
13231;DHT22;6681;53.254;10.398;2023-09-19T06:37:38;15.40;1.00
13231;DHT22;6681;53.254;10.398;2023-09-19T06:40:14;15.40;1.00
13231;DHT22;6681;53.254;10.398;2023-09-19T06:42:42;15.50;1.00
13231;DHT22;6681;53.254;10.398;2023-09-19T06:45:08;15.50;1.00
13231;DHT22;6681;53.254;10.398;2023-09-19T06:47:37;15.50;1.00
13231;DHT22;6681;53.254;10.398;2023-09-19T06:50:02;15.60;1.00
13231;DHT22;6681;53.254;10.398;2023-09-19T06:52:29;15.60;1.00
13231;DHT22;6681;53.254;10.398;2023-09-19T06:54:54;15.60;1.00
13231;DHT22;6681;53.254;10.398;2023-09-19T06:57:20;15.70;1.00
13231;DHT22;6681;53.254;10.398;2023-09-19T06:59:46;15.70;1.00
13231;DHT22;6681;53.254;10.398;2023-09-19T07:02:11;15.70;1.00
13231;DHT22;6681;53.254;10.398;2023-09-19T07:04:39;15.80;1.00
13231;DHT22;6681;53.254;10.398;2023-09-19T07:07:04;15.80;1.00
13231;DHT22;6681;53.254;10.398;2023-09-19T07:09:30;15.90;1.00
13231;DHT22;6681;53.254;10.398;2023-09-19T07:11:57;15.90;1.00
13231;DHT22;6681;53.254;10.398;2023-09-19T07:14:22;15.90;1.00
13231;DHT22;6681;53.254;10.398;2023-09-19T07:16:48;16.00;1.00
13231;DHT22;6681;53.254;10.398;2023-09-19T07:19:15;16.00;1.00
13231;DHT22;6681;53.254;10.398;2023-09-19T07:21:40;16.00;1.00
13231;DHT22;6681;53.254;10.398;2023-09-19T07:24:06;16.00;1.00
13231;DHT22;6681;53.254;10.398;2023-09-19T07:26:33;15.30;1.00
13231;DHT22;6681;53.254;10.398;2023-09-19T07:28:59;16.00;1.00
13231;DHT22;6681;53.254;10.398;2023-09-19T07:31:27;16.00;1.00
13231;DHT22;6681;53.254;10.398;2023-09-19T07:33:54;16.00;1.00
13231;DHT22;6681;53.254;10.398;2023-09-19T07:36:19;16.00;1.00
13231;DHT22;6681;53.254;10.398;2023-09-19T07:38:45;16.00;1.00
13231;DHT22;6681;53.254;10.398;2023-09-19T07:41:11;16.10;1.00
13231;DHT22;6681;53.254;10.398;2023-09-19T07:43:37;16.10;1.00
13231;DHT22;6681;53.254;10.398;2023-09-19T07:46:06;16.10;1.00
13231;DHT22;6681;53.254;10.398;2023-09-19T07:48:35;16.10;1.00
13231;DHT22;6681;53.254;10.398;2023-09-19T07:51:05;16.20;1.00
13231;DHT22;6681;53.254;10.398;2023-09-19T07:53:32;16.30;1.00
13231;DHT22;6681;53.254;10.398;2023-09-19T07:56:04;16.40;1.00
13231;DHT22;6681;53.254;10.398;2023-09-19T07:58:30;16.50;1.00
13231;DHT22;6681;53.254;10.398;2023-09-19T08:01:01;16.60;1.00
13231;DHT22;6681;53.254;10.398;2023-09-19T08:03:27;16.60;1.00
13231;DHT22;6681;53.254;10.398;2023-09-19T08:05:52;16.60;1.00
13231;DHT22;6681;53.254;10.398;2023-09-19T08:08:18;16.60;1.00
13231;DHT22;6681;53.254;10.398;2023-09-19T08:10:44;16.60;1.00
13231;DHT22;6681;53.254;10.398;2023-09-19T08:13:11;16.60;1.00
13231;DHT22;6681;53.254;10.398;2023-09-19T08:15:43;16.50;1.00
13231;DHT22;6681;53.254;10.398;2023-09-19T08:18:09;16.60;1.00
13231;DHT22;6681;53.254;10.398;2023-09-19T08:20:38;16.60;1.00
13231;DHT22;6681;53.254;10.398;2023-09-19T08:23:04;16.70;1.00
13231;DHT22;6681;53.254;10.398;2023-09-19T08:25:29;16.70;1.00
13231;DHT22;6681;53.254;10.398;2023-09-19T08:27:55;16.80;1.00
13231;DHT22;6681;53.254;10.398;2023-09-19T08:30:24;16.80;1.00
13231;DHT22;6681;53.254;10.398;2023-09-19T08:32:59;16.80;1.00
13231;DHT22;6681;53.254;10.398;2023-09-19T08:35:28;16.80;1.00
13231;DHT22;6681;53.254;10.398;2023-09-19T08:37:54;16.90;1.00
13231;DHT22;6681;53.254;10.398;2023-09-19T08:40:21;17.00;1.00
13231;DHT22;6681;53.254;10.398;2023-09-19T08:42:48;17.00;1.00
13231;DHT22;6681;53.254;10.398;2023-09-19T08:45:15;17.00;1.00
13231;DHT22;6681;53.254;10.398;2023-09-19T08:50:27;17.00;1.00
13231;DHT22;6681;53.254;10.398;2023-09-19T08:52:55;17.00;1.00
13231;DHT22;6681;53.254;10.398;2023-09-19T08:55:27;17.00;1.00
13231;DHT22;6681;53.254;10.398;2023-09-19T08:58:09;17.00;1.00
13231;DHT22;6681;53.254;10.398;2023-09-19T09:00:36;17.00;1.00
13231;DHT22;6681;53.254;10.398;2023-09-19T09:03:03;17.00;1.00
13231;DHT22;6681;53.254;10.398;2023-09-19T09:05:32;17.00;1.00
13231;DHT22;6681;53.254;10.398;2023-09-19T09:08:02;17.10;99.90
13231;DHT22;6681;53.254;10.398;2023-09-19T09:10:31;17.20;1.00
13231;DHT22;6681;53.254;10.398;2023-09-19T09:12:58;17.30;1.00
13231;DHT22;6681;53.254;10.398;2023-09-19T09:15:24;17.30;1.00
13231;DHT22;6681;53.254;10.398;2023-09-19T09:17:51;17.50;1.00
13231;DHT22;6681;53.254;10.398;2023-09-19T09:20:21;17.60;99.90
13231;DHT22;6681;53.254;10.398;2023-09-19T09:22:56;17.60;99.90
13231;DHT22;6681;53.254;10.398;2023-09-19T09:25:52;17.70;99.90
13231;DHT22;6681;53.254;10.398;2023-09-19T09:28:45;17.70;99.90
13231;DHT22;6681;53.254;10.398;2023-09-19T09:31:23;17.70;99.90
13231;DHT22;6681;53.254;10.398;2023-09-19T09:33:53;17.70;99.90
13231;DHT22;6681;53.254;10.398;2023-09-19T09:36:36;17.80;99.90
13231;DHT22;6681;53.254;10.398;2023-09-19T09:39:02;17.80;99.90
13231;DHT22;6681;53.254;10.398;2023-09-19T09:41:41;17.80;99.90
13231;DHT22;6681;53.254;10.398;2023-09-19T09:44:26;17.90;1.00
13231;DHT22;6681;53.254;10.398;2023-09-19T09:46:57;18.00;1.00
13231;DHT22;6681;53.254;10.398;2023-09-19T09:49:47;18.00;99.90
13231;DHT22;6681;53.254;10.398;2023-09-19T09:52:19;18.00;1.00
13231;DHT22;6681;53.254;10.398;2023-09-19T09:55:03;18.00;1.00
13231;DHT22;6681;53.254;10.398;2023-09-19T09:57:33;18.00;1.00
13231;DHT22;6681;53.254;10.398;2023-09-19T10:00:00;18.00;1.00
13231;DHT22;6681;53.254;10.398;2023-09-19T10:02:38;18.00;99.90
13231;DHT22;6681;53.254;10.398;2023-09-19T10:05:14;18.00;99.90
13231;DHT22;6681;53.254;10.398;2023-09-19T10:07:51;18.00;99.90
13231;DHT22;6681;53.254;10.398;2023-09-19T10:10:36;18.00;99.90
13231;DHT22;6681;53.254;10.398;2023-09-19T10:13:12;18.00;99.90
13231;DHT22;6681;53.254;10.398;2023-09-19T10:15:39;18.10;99.90
13231;DHT22;6681;53.254;10.398;2023-09-19T10:18:10;18.10;99.90
13231;DHT22;6681;53.254;10.398;2023-09-19T10:20:42;18.10;99.90
13231;DHT22;6681;53.254;10.398;2023-09-19T10:23:11;18.20;99.90
13231;DHT22;6681;53.254;10.398;2023-09-19T10:25:46;18.20;99.90
13231;DHT22;6681;53.254;10.398;2023-09-19T10:28:14;18.20;99.90
13231;DHT22;6681;53.254;10.398;2023-09-19T10:30:46;18.30;99.90
13231;DHT22;6681;53.254;10.398;2023-09-19T10:33:14;18.30;1.00
13231;DHT22;6681;53.254;10.398;2023-09-19T10:35:45;18.40;99.90
13231;DHT22;6681;53.254;10.398;2023-09-19T10:38:13;18.40;99.90
13231;DHT22;6681;53.254;10.398;2023-09-19T10:40:40;18.30;99.90
13231;DHT22;6681;53.254;10.398;2023-09-19T10:43:15;18.30;99.90
13231;DHT22;6681;53.254;10.398;2023-09-19T10:45:45;18.30;99.90
13231;DHT22;6681;53.254;10.398;2023-09-19T10:48:17;18.30;99.90
13231;DHT22;6681;53.254;10.398;2023-09-19T10:51:17;18.40;99.90
13231;DHT22;6681;53.254;10.398;2023-09-19T10:53:51;18.50;1.00
13231;DHT22;6681;53.254;10.398;2023-09-19T10:56:29;18.50;1.00
13231;DHT22;6681;53.254;10.398;2023-09-19T10:59:11;18.50;1.00
13231;DHT22;6681;53.254;10.398;2023-09-19T11:01:54;18.50;99.90
13231;DHT22;6681;53.254;10.398;2023-09-19T11:04:32;18.50;99.90
13231;DHT22;6681;53.254;10.398;2023-09-19T11:07:06;18.60;99.90
13231;DHT22;6681;53.254;10.398;2023-09-19T11:09:54;18.60;99.90
13231;DHT22;6681;53.254;10.398;2023-09-19T11:14:55;18.60;99.90
13231;DHT22;6681;53.254;10.398;2023-09-19T11:30:43;18.50;99.90
13231;DHT22;6681;53.254;10.398;2023-09-19T11:33:29;18.60;99.90
13231;DHT22;6681;53.254;10.398;2023-09-19T11:36:15;18.50;99.90
13231;DHT22;6681;53.254;10.398;2023-09-19T11:49:31;18.50;99.90
13231;DHT22;6681;53.254;10.398;2023-09-19T11:51:59;18.40;99.90
13231;DHT22;6681;53.254;10.398;2023-09-19T11:54:31;18.40;1.00
13231;DHT22;6681;53.254;10.398;2023-09-19T11:56:58;18.40;99.90
13231;DHT22;6681;53.254;10.398;2023-09-19T11:59:25;18.40;99.90
13231;DHT22;6681;53.254;10.398;2023-09-19T12:01:56;18.50;99.90
13231;DHT22;6681;53.254;10.398;2023-09-19T12:04:37;18.60;99.90
13231;DHT22;6681;53.254;10.398;2023-09-19T12:07:11;18.70;99.90
13231;DHT22;6681;53.254;10.398;2023-09-19T12:09:41;18.70;99.90
13231;DHT22;6681;53.254;10.398;2023-09-19T12:12:26;18.80;99.90
13231;DHT22;6681;53.254;10.398;2023-09-19T12:14:59;18.70;99.90
13231;DHT22;6681;53.254;10.398;2023-09-19T12:17:41;18.70;1.00
13231;DHT22;6681;53.254;10.398;2023-09-19T12:20:08;18.70;1.00
13231;DHT22;6681;53.254;10.398;2023-09-19T12:22:46;18.80;99.90
13231;DHT22;6681;53.254;10.398;2023-09-19T12:25:12;18.70;99.90
13231;DHT22;6681;53.254;10.398;2023-09-19T12:27:45;18.70;99.90
13231;DHT22;6681;53.254;10.398;2023-09-19T12:30:29;18.70;99.90
13231;DHT22;6681;53.254;10.398;2023-09-19T12:32:59;18.70;1.00
13231;DHT22;6681;53.254;10.398;2023-09-19T12:35:29;18.70;99.90
13231;DHT22;6681;53.254;10.398;2023-09-19T12:37:56;18.80;99.90
13231;DHT22;6681;53.254;10.398;2023-09-19T12:40:22;18.90;99.90
13231;DHT22;6681;53.254;10.398;2023-09-19T12:42:53;18.90;99.90
13231;DHT22;6681;53.254;10.398;2023-09-19T12:45:20;19.00;99.90
13231;DHT22;6681;53.254;10.398;2023-09-19T12:51:05;19.10;99.90
13231;DHT22;6681;53.254;10.398;2023-09-19T12:53:57;19.20;99.90
13231;DHT22;6681;53.254;10.398;2023-09-19T12:56:23;19.20;99.90
13231;DHT22;6681;53.254;10.398;2023-09-19T12:58:54;19.20;99.90
13231;DHT22;6681;53.254;10.398;2023-09-19T13:01:20;19.30;99.90
13231;DHT22;6681;53.254;10.398;2023-09-19T13:04:14;19.30;99.90
13231;DHT22;6681;53.254;10.398;2023-09-19T13:06:51;19.40;99.90
13231;DHT22;6681;53.254;10.398;2023-09-19T13:09:22;19.50;99.90
13231;DHT22;6681;53.254;10.398;2023-09-19T13:11:50;19.70;99.90
13231;DHT22;6681;53.254;10.398;2023-09-19T13:14:27;19.70;99.90
13231;DHT22;6681;53.254;10.398;2023-09-19T13:16:58;19.70;99.90
13231;DHT22;6681;53.254;10.398;2023-09-19T13:19:49;19.70;99.90
13231;DHT22;6681;53.254;10.398;2023-09-19T13:22:40;19.60;99.90
13231;DHT22;6681;53.254;10.398;2023-09-19T13:25:14;19.40;99.90
13231;DHT22;6681;53.254;10.398;2023-09-19T13:27:44;19.30;99.90
13231;DHT22;6681;53.254;10.398;2023-09-19T13:30:11;19.30;99.90
13231;DHT22;6681;53.254;10.398;2023-09-19T13:32:36;19.30;99.90
13231;DHT22;6681;53.254;10.398;2023-09-19T13:35:04;19.50;99.90
13231;DHT22;6681;53.254;10.398;2023-09-19T13:37:31;19.60;99.90
13231;DHT22;6681;53.254;10.398;2023-09-19T13:39:56;19.70;99.90
13231;DHT22;6681;53.254;10.398;2023-09-19T13:42:24;19.80;99.90
13231;DHT22;6681;53.254;10.398;2023-09-19T13:44:50;19.80;99.90
13231;DHT22;6681;53.254;10.398;2023-09-19T13:47:16;19.70;99.90
13231;DHT22;6681;53.254;10.398;2023-09-19T13:49:50;19.60;99.90
13231;DHT22;6681;53.254;10.398;2023-09-19T13:52:18;19.80;99.90
13231;DHT22;6681;53.254;10.398;2023-09-19T13:54:44;19.70;99.90
13231;DHT22;6681;53.254;10.398;2023-09-19T13:57:09;19.80;99.90
13231;DHT22;6681;53.254;10.398;2023-09-19T13:59:35;20.00;99.90
13231;DHT22;6681;53.254;10.398;2023-09-19T14:02:01;20.10;99.90
13231;DHT22;6681;53.254;10.398;2023-09-19T14:04:31;20.00;99.90
13231;DHT22;6681;53.254;10.398;2023-09-19T14:06:57;19.90;99.90
13231;DHT22;6681;53.254;10.398;2023-09-19T14:09:23;19.90;99.90
13231;DHT22;6681;53.254;10.398;2023-09-19T14:11:50;19.90;99.90
13231;DHT22;6681;53.254;10.398;2023-09-19T14:14:18;20.00;99.90
13231;DHT22;6681;53.254;10.398;2023-09-19T14:16:44;20.00;99.90
13231;DHT22;6681;53.254;10.398;2023-09-19T14:19:10;20.00;99.90
13231;DHT22;6681;53.254;10.398;2023-09-19T14:21:36;20.20;99.90
13231;DHT22;6681;53.254;10.398;2023-09-19T14:24:03;20.20;99.90
13231;DHT22;6681;53.254;10.398;2023-09-19T14:26:29;20.30;99.90
13231;DHT22;6681;53.254;10.398;2023-09-19T14:28:54;20.10;99.90
13231;DHT22;6681;53.254;10.398;2023-09-19T14:31:20;20.10;99.90
13231;DHT22;6681;53.254;10.398;2023-09-19T14:33:56;20.20;99.90
13231;DHT22;6681;53.254;10.398;2023-09-19T14:36:22;20.10;99.90
13231;DHT22;6681;53.254;10.398;2023-09-19T14:38:52;20.20;99.90
13231;DHT22;6681;53.254;10.398;2023-09-19T14:41:19;20.30;99.90
13231;DHT22;6681;53.254;10.398;2023-09-19T14:43:45;20.10;99.90
13231;DHT22;6681;53.254;10.398;2023-09-19T14:46:10;20.00;99.90
13231;DHT22;6681;53.254;10.398;2023-09-19T14:48:36;20.10;99.90
13231;DHT22;6681;53.254;10.398;2023-09-19T14:51:11;20.00;99.90
13231;DHT22;6681;53.254;10.398;2023-09-19T14:53:37;19.90;99.90
13231;DHT22;6681;53.254;10.398;2023-09-19T14:56:04;19.70;99.90
13231;DHT22;6681;53.254;10.398;2023-09-19T14:58:31;19.60;99.90
13231;DHT22;6681;53.254;10.398;2023-09-19T15:01:08;19.50;99.90
13231;DHT22;6681;53.254;10.398;2023-09-19T15:03:36;19.40;99.90
13231;DHT22;6681;53.254;10.398;2023-09-19T15:06:06;19.30;1.00
13231;DHT22;6681;53.254;10.398;2023-09-19T15:08:38;19.30;1.00
13231;DHT22;6681;53.254;10.398;2023-09-19T15:11:07;19.30;1.00
13231;DHT22;6681;53.254;10.398;2023-09-19T15:13:34;19.30;1.00
13231;DHT22;6681;53.254;10.398;2023-09-19T15:16:07;19.30;1.00
13231;DHT22;6681;53.254;10.398;2023-09-19T15:18:39;19.40;1.00
13231;DHT22;6681;53.254;10.398;2023-09-19T15:21:10;19.40;1.00
13231;DHT22;6681;53.254;10.398;2023-09-19T15:23:37;19.50;1.00
13231;DHT22;6681;53.254;10.398;2023-09-19T15:26:04;19.50;1.00
13231;DHT22;6681;53.254;10.398;2023-09-19T15:28:30;19.50;1.00
13231;DHT22;6681;53.254;10.398;2023-09-19T15:31:09;19.50;99.90
13231;DHT22;6681;53.254;10.398;2023-09-19T15:33:35;19.50;1.00
13231;DHT22;6681;53.254;10.398;2023-09-19T15:36:09;19.40;1.00
13231;DHT22;6681;53.254;10.398;2023-09-19T15:38:57;19.40;1.00
13231;DHT22;6681;53.254;10.398;2023-09-19T15:41:31;19.30;1.00
13231;DHT22;6681;53.254;10.398;2023-09-19T15:43:58;19.30;1.00
13231;DHT22;6681;53.254;10.398;2023-09-19T15:46:32;19.20;99.90
13231;DHT22;6681;53.254;10.398;2023-09-19T15:49:00;19.20;99.90
13231;DHT22;6681;53.254;10.398;2023-09-19T15:51:26;19.20;1.00
13231;DHT22;6681;53.254;10.398;2023-09-19T15:53:54;19.20;99.90
13231;DHT22;6681;53.254;10.398;2023-09-19T15:56:21;19.10;99.90
13231;DHT22;6681;53.254;10.398;2023-09-19T15:58:49;19.10;1.00
13231;DHT22;6681;53.254;10.398;2023-09-19T16:01:15;19.00;59.70
13231;DHT22;6681;53.254;10.398;2023-09-19T16:03:46;19.00;99.90
13231;DHT22;6681;53.254;10.398;2023-09-19T16:06:14;19.00;1.00
13231;DHT22;6681;53.254;10.398;2023-09-19T16:08:45;19.00;1.00
13231;DHT22;6681;53.254;10.398;2023-09-19T16:11:12;19.00;1.00
13231;DHT22;6681;53.254;10.398;2023-09-19T16:13:39;19.00;1.00
13231;DHT22;6681;53.254;10.398;2023-09-19T16:16:08;19.00;1.00
13231;DHT22;6681;53.254;10.398;2023-09-19T16:18:40;19.00;99.90
13231;DHT22;6681;53.254;10.398;2023-09-19T16:21:10;19.00;1.00
13231;DHT22;6681;53.254;10.398;2023-09-19T16:23:36;19.00;99.90
13231;DHT22;6681;53.254;10.398;2023-09-19T16:26:10;18.90;1.00
13231;DHT22;6681;53.254;10.398;2023-09-19T16:28:37;18.90;99.90
13231;DHT22;6681;53.254;10.398;2023-09-19T16:31:04;18.90;1.00
13231;DHT22;6681;53.254;10.398;2023-09-19T16:33:32;18.90;1.00
13231;DHT22;6681;53.254;10.398;2023-09-19T16:35:58;18.90;1.00
13231;DHT22;6681;53.254;10.398;2023-09-19T16:38:25;18.80;99.90
13231;DHT22;6681;53.254;10.398;2023-09-19T16:41:00;18.80;99.90
13231;DHT22;6681;53.254;10.398;2023-09-19T16:43:26;18.80;99.90